Time;durP1;ratioP1;P1;durP2;ratioP2;P2;SDS_P1;SDS_P2;PMS_P1;PMS_P2;Temp;Humidity;BMP_temperature;BMP_pressure;BME280_temperature;BME280_humidity;BME280_pressure;Samples;Min_cycle;Max_cycle;Signal;HPM_P1;HPM_P2
2021/01/12 00:01:17;;;;;;;26.13;16.50;;;;;;;1.83;74.14;98905.72;4854563;29;20223;-82
2021/01/12 00:03:47;;;;;;;24.55;15.07;;;;;;;1.77;74.47;98905.03;4898665;24;20453;-83
2021/01/12 00:06:16;;;;;;;24.10;14.88;;;;;;;1.79;74.88;98917.31;4849750;29;20257;-83
2021/01/12 00:08:42;;;;;;;26.80;16.73;;;;;;;1.81;74.26;98918.13;4893950;29;20219;-81
2021/01/12 00:11:08;;;;;;;22.85;14.32;;;;;;;1.83;74.25;98923.38;4860312;29;20247;-81
2021/01/12 00:13:34;;;;;;;24.70;14.57;;;;;;;1.89;74.41;98913.47;4861592;29;20291;-81
2021/01/12 00:16:00;;;;;;;21.00;12.90;;;;;;;1.89;74.02;98908.16;4892545;29;20242;-83
2021/01/12 00:18:26;;;;;;;24.00;14.35;;;;;;;1.77;74.41;98907.69;4860917;29;20223;-83
2021/01/12 00:20:52;;;;;;;19.92;12.77;;;;;;;1.78;74.80;98894.41;4848701;29;20545;-84
2021/01/12 00:23:19;;;;;;;26.30;15.73;;;;;;;1.78;74.96;98902.34;4847594;29;20314;-83
2021/01/12 00:25:47;;;;;;;26.25;15.68;;;;;;;1.92;74.22;98896.56;4872103;29;20611;-83
2021/01/12 00:28:13;;;;;;;28.55;15.63;;;;;;;1.91;74.39;98887.75;4841596;29;20243;-83
2021/01/12 00:30:39;;;;;;;23.88;15.20;;;;;;;1.96;74.19;98888.47;4841681;29;20278;-83
2021/01/12 00:33:05;;;;;;;26.50;15.60;;;;;;;1.87;74.21;98886.09;4842885;29;20237;-83
2021/01/12 00:35:31;;;;;;;24.80;16.57;;;;;;;1.95;74.36;98881.44;4847513;29;20181;-81
2021/01/12 09:22:29;;;;;;;4.13;3.15;;;;;;;2.29;86.70;98326.69;5296214;23;20298;-82
2021/01/12 09:24:57;;;;;;;5.45;3.05;;;;;;;2.36;86.97;98326.34;4871214;29;20254;-83
2021/01/12 09:27:29;;;;;;;5.18;3.35;;;;;;;2.37;86.87;98322.78;4854450;29;20230;-83
2021/01/12 09:29:56;;;;;;;3.30;3.00;;;;;;;2.39;86.35;98325.38;4860445;29;20226;-83
2021/01/12 09:32:32;;;;;;;3.90;3.28;;;;;;;2.44;86.71;98321.56;4872759;29;20230;-81
2021/01/12 09:34:59;;;;;;;3.47;3.13;;;;;;;2.47;86.35;98321.44;4872045;29;20214;-82
2021/01/12 09:37:25;;;;;;;4.00;3.40;;;;;;;2.47;85.84;98318.78;4899705;29;20210;-81
2021/01/12 09:39:56;;;;;;;4.32;3.45;;;;;;;2.50;85.99;98331.03;4895927;29;20262;-81
2021/01/12 09:42:25;;;;;;;4.13;3.72;;;;;;;2.56;86.49;98323.66;4868752;29;20241;-82
2021/01/12 09:45:07;;;;;;;3.50;3.20;;;;;;;2.55;86.08;98319.28;4881754;29;20222;-82
2021/01/12 09:47:38;;;;;;;5.40;3.80;;;;;;;2.54;86.13;98314.91;4878837;29;20289;-82
2021/01/12 09:50:07;;;;;;;3.45;3.15;;;;;;;2.49;85.80;98314.25;4884737;29;20253;-82
2021/01/12 09:52:33;;;;;;;3.45;3.08;;;;;;;2.58;85.89;98321.78;4884297;29;20265;-83
2021/01/12 09:55:09;;;;;;;3.33;2.80;;;;;;;2.60;85.90;98314.63;4877930;29;20282;-82
2021/01/12 09:57:37;;;;;;;3.42;3.13;;;;;;;2.67;86.08;98316.06;4899874;29;20229;-83
2021/01/12 10:00:08;;;;;;;4.80;3.30;;;;;;;2.66;85.94;98314.34;4876847;29;20275;-83
2021/01/12 10:02:37;;;;;;;4.57;2.80;;;;;;;2.64;85.47;98310.88;4881998;29;20233;-84
2021/01/12 10:05:09;;;;;;;2.90;2.60;;;;;;;2.59;85.51;98302.28;4882428;29;20239;-82
2021/01/12 10:07:38;;;;;;;4.00;2.97;;;;;;;2.61;85.46;98308.38;4878340;29;20226;-81
2021/01/12 10:10:05;;;;;;;3.58;3.00;;;;;;;2.55;85.87;98308.66;4869885;29;20222;-81
2021/01/12 10:12:32;;;;;;;5.47;4.40;;;;;;;2.71;86.44;98312.28;4897669;29;20234;-79
2021/01/12 10:14:58;;;;;;;5.53;4.43;;;;;;;2.82;86.66;98312.66;4876814;29;20198;-80
2021/01/12 10:17:30;;;;;;;3.15;2.80;;;;;;;2.61;85.65;98316.34;4862443;29;20295;-81
2021/01/12 10:19:56;;;;;;;3.58;3.20;;;;;;;2.62;86.02;98323.34;4880776;29;20226;-81
2021/01/12 10:22:22;;;;;;;3.53;3.22;;;;;;;2.63;86.23;98317.13;4836630;29;20303;-80
2021/01/12 10:24:50;;;;;;;4.18;3.30;;;;;;;2.64;85.93;98316.19;4870422;29;20223;-81
2021/01/12 10:27:22;;;;;;;3.97;3.55;;;;;;;2.77;86.17;98311.16;4877209;29;20211;-82
2021/01/12 10:29:52;;;;;;;4.22;3.83;;;;;;;2.75;85.64;98311.22;4890664;29;20223;-82
2021/01/12 10:32:19;;;;;;;3.55;3.10;;;;;;;2.80;85.67;98306.56;4875176;29;20265;-82
2021/01/12 10:34:46;;;;;;;4.97;4.03;;;;;;;2.78;85.87;98311.09;4859081;29;20226;-82
2021/01/12 10:37:14;;;;;;;5.45;3.85;;;;;;;2.75;85.28;98303.28;4857752;29;20250;-81
2021/01/12 10:39:40;;;;;;;6.32;3.75;;;;;;;2.82;85.57;98309.16;4882410;29;20247;-79
2021/01/12 10:42:06;;;;;;;5.22;4.00;;;;;;;2.78;85.74;98302.25;4879036;29;20218;-82
2021/01/12 10:44:32;;;;;;;5.60;3.05;;;;;;;2.76;85.62;98310.28;4877593;29;20203;-82
2021/01/12 10:46:59;;;;;;;4.72;3.35;;;;;;;2.66;85.66;98297.53;4857566;29;20235;-83
2021/01/12 10:49:25;;;;;;;3.40;2.88;;;;;;;2.70;85.33;98305.28;4879439;29;20290;-82
2021/01/12 10:52:02;;;;;;;3.40;3.10;;;;;;;2.75;85.34;98295.31;4876898;29;20223;-83
2021/01/12 10:54:29;;;;;;;5.53;4.45;;;;;;;2.97;85.92;98292.47;4875690;29;20224;-80
2021/01/12 10:56:55;;;;;;;4.47;3.80;;;;;;;2.82;84.73;98294.06;4887403;29;20227;-81
2021/01/12 10:59:23;;;;;;;4.03;3.65;;;;;;;2.97;85.54;98282.69;4891058;29;20287;-82
2021/01/12 11:01:57;;;;;;;5.95;3.30;;;;;;;2.96;85.13;98283.63;4877658;29;20236;-82
2021/01/12 11:04:24;;;;;;;3.97;3.10;;;;;;;2.99;84.71;98275.53;4892212;29;20230;-85
2021/01/12 11:06:51;;;;;;;4.13;3.40;;;;;;;2.96;84.55;98280.16;4870973;29;20257;-84
2021/01/12 11:09:19;;;;;;;3.65;3.25;;;;;;;2.92;84.76;98270.59;4859617;29;20208;-83
2021/01/12 11:11:47;;;;;;;3.90;3.38;;;;;;;2.78;84.90;98273.06;4893232;29;20210;-81
2021/01/12 11:14:15;;;;;;;5.30;3.40;;;;;;;2.81;85.37;98271.13;4873947;29;20252;-82
2021/01/12 11:16:42;;;;;;;4.13;3.50;;;;;;;2.82;85.36;98261.38;4871617;29;20237;-84
2021/01/12 11:19:08;;;;;;;4.03;3.05;;;;;;;2.76;84.87;98259.03;4871205;29;20295;-82
2021/01/12 11:21:44;;;;;;;4.88;4.18;;;;;;;2.84;85.79;98249.72;4857890;29;20234;-81
2021/01/12 11:24:20;;;;;;;3.60;3.17;;;;;;;2.91;85.53;98248.53;4869602;29;20212;-81
2021/01/12 11:26:47;;;;;;;3.53;3.22;;;;;;;2.93;85.25;98253.72;4861794;29;20223;-81
2021/01/12 11:29:14;;;;;;;3.30;3.00;;;;;;;2.96;85.11;98243.81;4857012;29;20226;-82
2021/01/12 11:31:41;;;;;;;3.28;2.75;;;;;;;2.90;84.70;98246.78;4868696;29;20832;-81
2021/01/12 11:34:09;;;;;;;4.50;3.30;;;;;;;2.91;85.38;98248.53;4862053;29;20274;-83
2021/01/12 11:36:39;;;;;;;3.25;2.75;;;;;;;2.96;84.62;98238.50;4874078;28;20677;-82
2021/01/12 11:39:10;;;;;;;3.58;3.15;;;;;;;2.94;84.84;98235.06;4880909;29;20194;-80
2021/01/12 11:41:38;;;;;;;2.60;2.40;;;;;;;3.01;84.79;98233.00;4864259;29;20221;-81
2021/01/12 11:44:10;;;;;;;3.67;3.25;;;;;;;3.00;84.83;98233.91;4856711;29;20227;-82
2021/01/12 11:46:36;;;;;;;4.05;2.97;;;;;;;3.01;84.88;98236.50;4864998;29;20230;-81
2021/01/12 11:49:04;;;;;;;5.88;2.78;;;;;;;2.97;84.62;98234.91;4853505;29;20237;-83
2021/01/12 11:51:40;;;;;;;3.75;3.35;;;;;;;3.02;84.51;98232.91;4856509;29;20384;-82
2021/01/12 11:54:08;;;;;;;3.00;2.70;;;;;;;3.13;84.46;98233.22;4858589;29;20194;-83
2021/01/12 11:56:35;;;;;;;3.30;2.80;;;;;;;3.16;84.47;98221.59;4875766;29;20202;-82
2021/01/12 11:59:03;;;;;;;2.85;2.55;;;;;;;3.08;83.97;98232.59;4855353;29;20654;-81
2021/01/12 12:01:40;;;;;;;2.75;2.47;;;;;;;2.96;84.65;98219.91;4854777;29;20234;-81
2021/01/12 12:04:06;;;;;;;3.78;2.95;;;;;;;3.04;85.05;98208.94;4845364;29;20230;-82
2021/01/12 12:06:32;;;;;;;3.65;3.25;;;;;;;3.11;84.58;98199.72;4857323;29;20313;-82
2021/01/12 12:08:58;;;;;;;4.50;2.40;;;;;;;3.25;83.78;98206.03;4868939;29;20191;-81
2021/01/12 12:11:26;;;;;;;2.85;2.30;;;;;;;3.13;84.20;98209.31;4866621;29;20235;-81
2021/01/12 12:13:52;;;;;;;7.25;2.90;;;;;;;3.10;84.74;98192.69;4852670;29;20247;-82
2021/01/12 12:16:21;;;;;;;3.88;2.80;;;;;;;3.08;84.28;98203.38;4842128;29;20525;-79
2021/01/12 12:18:48;;;;;;;2.75;2.45;;;;;;;3.00;84.02;98200.25;4855457;29;20229;-81
2021/01/12 12:21:15;;;;;;;3.25;2.53;;;;;;;3.04;85.04;98188.56;4862388;29;20647;-81
2021/01/12 12:23:44;;;;;;;3.17;2.88;;;;;;;3.17;85.22;98199.41;4878581;29;20195;-82
2021/01/12 12:26:11;;;;;;;3.90;2.75;;;;;;;3.21;84.57;98195.66;4873811;29;20235;-83
2021/01/12 12:28:38;;;;;;;3.30;2.88;;;;;;;3.24;84.13;98192.84;4885137;29;20237;-82
2021/01/12 12:31:04;;;;;;;2.75;2.40;;;;;;;3.29;83.82;98190.81;4859255;29;20305;-81
2021/01/12 12:33:36;;;;;;;3.97;2.90;;;;;;;3.09;84.04;98181.19;4856493;29;20265;-83
2021/01/12 12:36:15;;;;;;;4.07;3.25;;;;;;;3.13;84.39;98176.59;4870619;29;20229;-83
2021/01/12 12:38:44;;;;;;;2.97;2.65;;;;;;;3.09;84.35;98183.84;4863576;29;20860;-83
2021/01/12 12:41:16;;;;;;;3.03;2.45;;;;;;;3.07;84.44;98179.53;4876433;29;20293;-83
2021/01/12 12:43:43;;;;;;;3.05;2.17;;;;;;;3.07;84.13;98177.75;4862859;29;20227;-81
2021/01/12 12:46:12;;;;;;;3.60;2.63;;;;;;;3.12;84.64;98175.75;4858617;29;20227;-80
2021/01/12 12:48:38;;;;;;;3.63;2.67;;;;;;;3.18;83.98;98172.78;4853935;29;20263;-80
2021/01/12 12:51:11;;;;;;;2.97;2.67;;;;;;;3.25;83.94;98181.28;4867440;29;20233;-81
2021/01/12 12:53:38;;;;;;;4.32;3.10;;;;;;;3.23;83.88;98178.72;4855523;29;20207;-80
2021/01/12 12:56:15;;;;;;;3.80;2.83;;;;;;;3.33;83.60;98179.94;4852407;29;20241;-80
2021/01/12 12:58:42;;;;;;;3.83;2.95;;;;;;;3.34;83.96;98170.19;4866996;29;20252;-82
2021/01/12 13:01:09;;;;;;;2.95;2.65;;;;;;;3.35;83.62;98178.06;4864083;29;20230;-81
2021/01/12 13:03:36;;;;;;;3.67;3.10;;;;;;;3.47;83.43;98177.41;4863501;29;20242;-81
2021/01/12 13:06:03;;;;;;;4.07;2.75;;;;;;;3.51;83.35;98184.31;4876172;29;20232;-79
2021/01/12 13:08:31;;;;;;;3.78;2.60;;;;;;;3.46;83.06;98175.72;4880727;29;20206;-82
2021/01/12 13:10:58;;;;;;;7.10;5.47;;;;;;;3.48;83.37;98188.91;4879414;29;20223;-81
2021/01/12 13:13:25;;;;;;;3.40;3.10;;;;;;;3.40;83.89;98184.00;4870538;29;20756;-81
2021/01/12 13:15:52;;;;;;;6.30;3.17;;;;;;;3.38;84.09;98172.59;4878799;29;20238;-80
2021/01/12 13:18:42;;;;;;;;;;;;;;;;;;;;;
2021/01/12 13:21:14;;;;;;;3.53;2.38;;;;;;;3.40;83.81;98176.03;4846125;29;20688;-81
2021/01/12 13:23:45;;;;;;;3.17;2.67;;;;;;;3.28;84.38;98189.09;4851790;29;20207;-82
2021/01/12 13:26:22;;;;;;;2.92;2.63;;;;;;;3.39;84.64;98182.28;4847879;29;20242;-81
2021/01/12 13:28:49;;;;;;;3.05;2.58;;;;;;;3.41;84.18;98182.22;4778177;29;20246;-82
2021/01/12 13:31:15;;;;;;;3.50;3.20;;;;;;;3.54;84.04;98189.44;4852427;29;20231;-80
2021/01/12 13:33:42;;;;;;;6.05;2.85;;;;;;;3.53;83.53;98190.38;4876866;29;20206;-79
2021/01/12 13:36:09;;;;;;;3.30;3.00;;;;;;;3.53;83.95;98181.56;4873895;29;20202;-82
2021/01/12 13:38:35;;;;;;;3.40;2.95;;;;;;;3.61;84.08;98190.00;4882714;29;20211;-80
2021/01/12 13:41:01;;;;;;;2.97;2.70;;;;;;;3.57;83.94;98181.31;4885058;29;20225;-79
2021/01/12 13:43:27;;;;;;;3.45;2.60;;;;;;;3.38;84.55;98188.53;4872098;29;20243;-80
2021/01/12 13:45:53;;;;;;;3.45;3.15;;;;;;;3.45;84.99;98181.09;4853511;29;20567;-80
2021/01/12 13:48:21;;;;;;;2.92;2.65;;;;;;;3.21;85.59;98185.03;4848361;29;20199;-80
2021/01/12 13:50:48;;;;;;;3.70;3.13;;;;;;;3.30;85.92;98184.56;4857720;29;20267;-81
2021/01/12 13:53:15;;;;;;;2.78;2.50;;;;;;;3.26;85.64;98190.94;4865582;29;20234;-81
2021/01/12 13:55:42;;;;;;;3.17;2.85;;;;;;;3.34;85.73;98192.28;4882409;29;20203;-80
2021/01/12 13:58:09;;;;;;;4.05;2.80;;;;;;;3.47;85.76;98198.66;4837834;29;20235;-80
2021/01/12 14:00:37;;;;;;;3.08;2.85;;;;;;;3.49;85.38;98196.81;4864891;29;20216;-80
2021/01/12 14:03:07;;;;;;;5.50;3.28;;;;;;;3.57;85.49;98197.28;4866029;29;20231;-80
2021/01/12 14:05:34;;;;;;;3.70;2.78;;;;;;;3.64;85.15;98196.00;4865173;29;20202;-81
2021/01/12 14:08:01;;;;;;;3.75;2.88;;;;;;;3.79;84.50;98195.19;4869593;29;20228;-80
2021/01/12 14:10:30;;;;;;;3.47;2.97;;;;;;;3.72;84.26;98193.78;4842464;29;20230;-81
2021/01/12 14:13:00;;;;;;;4.88;3.35;;;;;;;3.62;84.19;98200.56;4854315;29;20308;-80
2021/01/12 14:15:27;;;;;;;3.15;2.88;;;;;;;3.70;84.12;98197.47;4867295;29;20234;-80
2021/01/12 14:17:56;;;;;;;4.25;3.13;;;;;;;3.75;83.93;98201.63;4866194;29;20203;-80
2021/01/12 14:20:26;;;;;;;3.38;3.08;;;;;;;3.86;84.24;98199.22;4816365;29;20770;-79
2021/01/12 14:22:56;;;;;;;3.60;2.78;;;;;;;3.76;84.09;98199.81;4800383;29;20762;-79
2021/01/12 14:25:27;;;;;;;3.28;2.97;;;;;;;3.81;83.99;98206.63;4846883;29;20282;-77
2021/01/12 14:27:54;;;;;;;3.30;2.90;;;;;;;3.82;84.00;98215.44;4870708;29;20242;-80
2021/01/12 14:30:22;;;;;;;4.25;3.45;;;;;;;3.80;84.31;98212.00;4857126;29;20215;-78
2021/01/12 14:32:53;;;;;;;3.70;3.30;;;;;;;3.93;84.41;98216.56;4867057;29;20658;-81
2021/01/12 14:35:20;;;;;;;4.35;3.38;;;;;;;3.88;84.45;98221.28;4853077;29;20229;-78
2021/01/12 14:38:16;;;;;;;3.03;2.55;;;;;;;3.79;84.91;98221.75;4864336;29;20379;-78
2021/01/12 14:40:49;;;;;;;3.35;3.15;;;;;;;3.72;85.23;98220.38;4854223;29;20227;-79
2021/01/12 14:43:16;;;;;;;3.33;3.03;;;;;;;3.68;85.16;98226.81;4857093;29;20238;-78
2021/01/12 14:45:47;;;;;;;6.80;4.30;;;;;;;3.81;85.23;98230.53;4879496;29;20226;-78
2021/01/12 14:48:14;;;;;;;5.05;2.60;;;;;;;3.70;84.75;98226.69;4851195;29;20287;-78
2021/01/12 14:50:40;;;;;;;3.20;2.90;;;;;;;3.64;85.33;98235.00;4851176;29;20222;-79
2021/01/12 14:53:09;;;;;;;3.40;3.10;;;;;;;3.68;85.44;98233.91;4851701;29;20237;-80
2021/01/12 14:55:38;;;;;;;3.72;2.90;;;;;;;3.73;84.92;98232.72;4842135;29;20242;-78
2021/01/12 14:58:04;;;;;;;2.40;2.20;;;;;;;3.65;84.67;98232.28;4860162;29;20231;-80
2021/01/12 15:00:30;;;;;;;3.65;3.35;;;;;;;3.72;85.46;98227.50;4849845;29;20300;-78
2021/01/12 15:02:56;;;;;;;3.90;3.50;;;;;;;3.68;85.17;98239.22;4845519;29;20234;-79
2021/01/12 15:05:29;;;;;;;3.50;3.08;;;;;;;3.74;85.64;98233.59;4881096;29;20230;-84
2021/01/12 15:07:55;;;;;;;3.10;2.80;;;;;;;3.62;85.44;98234.22;4848788;29;20720;-82
2021/01/12 15:10:21;;;;;;;3.20;2.90;;;;;;;3.53;86.10;98230.25;4881821;29;20665;-81
2021/01/12 15:12:48;;;;;;;2.80;2.60;;;;;;;3.69;85.82;98236.50;4854022;29;20230;-79
2021/01/12 15:15:14;;;;;;;2.53;2.33;;;;;;;3.80;85.44;98234.09;4855748;29;20239;-78
2021/01/12 15:17:40;;;;;;;2.83;2.55;;;;;;;3.82;85.57;98236.69;4870714;29;20233;-79
2021/01/12 15:20:08;;;;;;;2.60;2.40;;;;;;;3.77;85.60;98236.94;4850210;29;20242;-78
2021/01/12 15:22:34;;;;;;;7.43;3.90;;;;;;;3.77;85.96;98244.91;4849790;29;20309;-78
2021/01/12 15:25:00;;;;;;;2.50;2.30;;;;;;;3.77;85.22;98238.72;4869187;29;20230;-79
2021/01/12 15:27:26;;;;;;;2.90;2.70;;;;;;;3.73;85.57;98246.00;4854456;29;20210;-78
2021/01/12 15:29:52;;;;;;;2.70;2.50;;;;;;;3.81;85.45;98245.63;4875160;29;20217;-79
2021/01/12 15:32:18;;;;;;;2.65;2.45;;;;;;;3.75;85.57;98241.50;4857090;29;20231;-79
2021/01/12 15:34:46;;;;;;;2.70;2.50;;;;;;;3.75;85.06;98246.81;4857742;29;20207;-78
2021/01/12 15:37:12;;;;;;;2.72;2.53;;;;;;;3.75;85.93;98245.94;4847528;29;21745;-78
2021/01/12 15:39:48;;;;;;;3.03;2.70;;;;;;;3.72;85.58;98246.13;4870492;29;20238;-78
2021/01/12 15:42:15;;;;;;;3.08;2.78;;;;;;;3.76;85.60;98258.28;4846579;29;20239;-78
2021/01/12 15:44:42;;;;;;;2.60;2.40;;;;;;;3.75;86.12;98256.56;4858013;29;20602;-77
2021/01/12 15:47:08;;;;;;;2.97;2.78;;;;;;;3.70;85.84;98255.94;4878445;29;20684;-78
2021/01/12 15:49:35;;;;;;;2.72;2.53;;;;;;;3.64;85.95;98259.78;4863972;29;20211;-79
2021/01/12 15:52:16;;;;;;;3.53;3.22;;;;;;;3.75;86.76;98267.22;4851994;29;20280;-78
2021/01/12 15:54:49;;;;;;;2.78;2.50;;;;;;;3.75;85.94;98261.88;4833767;29;20301;-78
2021/01/12 15:57:15;;;;;;;3.55;2.95;;;;;;;3.78;86.17;98267.91;4863165;29;20234;-78
2021/01/12 15:59:42;;;;;;;4.85;4.13;;;;;;;3.73;86.66;98275.25;4850148;29;20237;-77
2021/01/12 16:02:08;;;;;;;3.13;2.83;;;;;;;3.86;86.68;98276.34;4860213;29;20469;-78
2021/01/12 16:04:37;;;;;;;5.30;3.22;;;;;;;3.90;86.18;98277.03;4859498;29;20245;-77
2021/01/12 16:07:05;;;;;;;3.85;3.45;;;;;;;3.89;86.57;98278.84;4847136;29;20231;-78
2021/01/12 16:09:32;;;;;;;5.63;4.03;;;;;;;3.81;86.89;98289.03;4858851;29;20231;-78
2021/01/12 16:12:00;;;;;;;4.43;3.92;;;;;;;3.82;86.65;98274.78;4878440;29;20289;-78
2021/01/12 16:14:27;;;;;;;4.20;3.72;;;;;;;3.91;87.38;98292.06;4872736;29;20202;-79
2021/01/12 16:16:53;;;;;;;4.90;2.92;;;;;;;3.95;85.98;98296.28;4870321;29;20205;-78
2021/01/12 16:19:23;;;;;;;3.25;2.95;;;;;;;3.94;85.71;98292.78;4851992;29;20258;-78
2021/01/12 16:21:53;;;;;;;3.78;3.47;;;;;;;3.92;86.26;98285.81;4857811;29;20226;-78
2021/01/12 16:24:19;;;;;;;4.60;4.20;;;;;;;3.93;86.46;98299.00;4860185;29;20578;-77
2021/01/12 16:26:46;;;;;;;4.05;3.30;;;;;;;3.87;86.30;98296.69;4843073;29;20230;-78
2021/01/12 16:29:12;;;;;;;4.35;3.95;;;;;;;3.79;86.53;98304.19;4871278;29;20202;-77
2021/01/12 16:31:41;;;;;;;3.78;3.30;;;;;;;3.91;87.00;98308.88;4850905;29;20229;-78
2021/01/12 16:34:09;;;;;;;4.90;3.53;;;;;;;3.82;86.90;98311.16;4861263;29;20252;-79
2021/01/12 16:36:36;;;;;;;4.35;3.95;;;;;;;3.86;87.49;98312.72;4870284;29;20258;-79
2021/01/12 16:39:07;;;;;;;5.88;4.53;;;;;;;3.92;87.26;98321.22;4847184;29;20282;-80
2021/01/12 16:41:41;;;;;;;4.05;3.75;;;;;;;3.90;87.24;98320.44;4848017;29;20595;-79
2021/01/12 16:44:24;;;;;;;4.30;3.90;;;;;;;3.89;87.16;98318.72;4859540;29;20212;-79
2021/01/12 16:47:21;;;;;;;4.60;4.20;;;;;;;3.99;87.79;98335.06;4879668;29;20218;-79
2021/01/12 16:49:56;;;;;;;4.18;3.83;;;;;;;4.08;87.34;98340.78;4851780;29;20684;-78
2021/01/12 16:52:37;;;;;;;5.55;5.03;;;;;;;4.00;86.86;98337.66;4865236;29;20237;-76
2021/01/12 16:55:09;;;;;;;4.55;4.13;;;;;;;3.95;87.58;98345.00;4874405;29;20786;-76
2021/01/12 16:57:42;;;;;;;5.78;5.18;;;;;;;4.00;87.94;98353.63;4875344;29;20229;-77
2021/01/12 17:00:17;;;;;;;5.82;5.20;;;;;;;4.03;87.96;98345.47;4866976;29;20230;-78
2021/01/12 17:02:47;;;;;;;7.55;6.18;;;;;;;4.09;87.29;98363.78;4848530;29;20313;-78
2021/01/12 17:05:39;;;;;;;6.50;5.80;;;;;;;4.00;87.74;98364.25;4865746;29;20261;-78
2021/01/12 17:08:15;;;;;;;6.97;6.10;;;;;;;3.98;88.09;98366.13;4860738;29;20285;-75
2021/01/12 17:10:54;;;;;;;5.38;4.85;;;;;;;3.83;88.42;98358.06;4858622;29;20233;-77
2021/01/12 17:13:23;;;;;;;7.00;5.80;;;;;;;3.90;88.83;98363.00;4854192;29;20231;-77
2021/01/12 17:15:59;;;;;;;5.53;5.03;;;;;;;3.89;88.37;98366.59;4865356;29;20278;-77
2021/01/12 17:18:26;;;;;;;24.88;16.50;;;;;;;3.97;88.55;98369.72;4853212;29;20241;-77
2021/01/12 17:20:54;;;;;;;14.20;9.60;;;;;;;3.97;88.77;98374.19;4861862;29;20232;-77
2021/01/12 17:23:28;;;;;;;15.07;8.98;;;;;;;4.05;88.77;98382.63;4883599;29;20309;-78
2021/01/12 17:26:02;;;;;;;7.70;6.55;;;;;;;4.06;89.14;98395.88;4880997;29;20210;-77
2021/01/12 17:28:41;;;;;;;6.03;5.40;;;;;;;4.30;87.22;98399.06;4861390;29;20269;-77
2021/01/12 17:31:10;;;;;;;6.30;5.70;;;;;;;4.20;86.61;98405.78;4876585;29;20245;-77
2021/01/12 17:33:51;;;;;;;6.00;5.35;;;;;;;4.28;86.87;98406.22;4866766;29;20258;-77
2021/01/12 17:36:18;;;;;;;6.90;5.90;;;;;;;4.17;86.32;98416.59;4849299;29;20830;-78
2021/01/12 17:38:51;;;;;;;6.35;5.75;;;;;;;4.09;86.61;98416.97;4849835;29;20226;-78
2021/01/12 17:41:24;;;;;;;5.55;5.05;;;;;;;3.99;87.15;98421.03;4843255;29;20202;-77
2021/01/12 17:43:57;;;;;;;6.40;5.78;;;;;;;4.12;87.39;98427.44;4860902;29;20248;-77
2021/01/12 17:46:33;;;;;;;8.25;6.95;;;;;;;4.04;86.90;98432.28;4887738;29;20668;-80
2021/01/12 17:49:20;;;;;;;8.32;6.93;;;;;;;4.04;87.35;98437.63;4865971;29;20230;-77
2021/01/12 17:51:50;;;;;;;7.75;6.95;;;;;;;4.13;87.40;98438.97;4876295;29;20230;-76
2021/01/12 17:54:19;;;;;;;9.32;8.23;;;;;;;4.09;87.44;98442.69;4889700;29;20250;-75
2021/01/12 17:56:54;;;;;;;8.55;7.70;;;;;;;4.12;87.35;98454.03;4885668;29;20222;-75
2021/01/12 17:59:25;;;;;;;9.75;8.73;;;;;;;4.10;87.92;98460.41;4859036;29;20195;-76
2021/01/12 18:02:18;;;;;;;12.05;9.02;;;;;;;4.19;87.64;98466.13;4860470;29;20222;-76
2021/01/12 18:04:46;;;;;;;14.35;8.90;;;;;;;4.01;88.47;98472.38;4867641;29;20207;-78
2021/01/12 18:07:26;;;;;;;12.75;8.75;;;;;;;4.18;88.24;98472.34;4861214;29;20781;-78
2021/01/12 18:09:58;;;;;;;10.05;8.68;;;;;;;4.20;88.46;98477.59;4855021;29;20219;-78
2021/01/12 18:12:33;;;;;;;13.15;9.45;;;;;;;4.18;88.18;98490.97;4851748;29;20226;-77
2021/01/12 18:14:59;;;;;;;10.73;8.95;;;;;;;4.10;89.20;98487.84;4870713;29;20240;-76
2021/01/12 18:17:28;;;;;;;13.18;10.00;;;;;;;4.13;88.93;98492.16;4879050;29;20246;-77
2021/01/12 18:19:55;;;;;;;14.00;10.93;;;;;;;4.11;88.91;98505.53;4869214;29;20206;-79
2021/01/12 18:22:22;;;;;;;16.23;10.88;;;;;;;4.02;89.18;98500.69;4874334;29;20223;-80
2021/01/12 18:24:49;;;;;;;17.33;12.38;;;;;;;4.05;89.16;98484.56;4876755;29;20237;-79
2021/01/12 18:27:22;;;;;;;19.58;12.60;;;;;;;3.96;89.73;98490.34;4865640;29;20230;-80
2021/01/12 18:29:56;;;;;;;20.80;13.10;;;;;;;4.01;89.39;98493.66;4850246;29;20230;-80
2021/01/12 18:32:23;;;;;;;17.27;12.80;;;;;;;3.96;89.33;98510.75;4855599;29;20237;-80
2021/01/12 18:34:50;;;;;;;18.30;12.82;;;;;;;3.92;89.99;98510.03;4870829;29;20294;-78
2021/01/12 18:37:27;;;;;;;19.02;13.10;;;;;;;4.01;89.46;98516.69;4865320;29;20268;-79
2021/01/12 18:40:07;;;;;;;17.73;13.40;;;;;;;3.88;89.11;98519.13;4866311;29;20222;-79
2021/01/12 18:42:40;;;;;;;15.63;12.13;;;;;;;3.71;89.57;98515.53;4854104;29;20673;-78
2021/01/12 18:45:08;;;;;;;16.08;11.90;;;;;;;3.63;89.94;98521.22;4888034;29;20305;-78
2021/01/12 18:47:58;;;;;;;15.52;11.15;;;;;;;3.57;89.49;98536.59;4862885;29;20610;-80
2021/01/12 18:50:28;;;;;;;11.55;10.40;;;;;;;3.40;89.94;98548.00;4874504;29;20218;-79
2021/01/12 18:52:58;;;;;;;15.82;11.20;;;;;;;3.37;90.79;98556.13;4855979;29;20234;-79
2021/01/12 18:55:31;;;;;;;17.13;11.95;;;;;;;3.37;91.38;98561.44;4854534;29;20230;-82
2021/01/12 18:57:57;;;;;;;16.35;13.35;;;;;;;3.32;91.54;98576.75;4853543;29;20222;-79
2021/01/12 19:00:34;;;;;;;23.55;16.35;;;;;;;3.26;91.66;98581.44;4856329;29;20227;-80
2021/01/12 19:03:01;;;;;;;33.83;24.48;;;;;;;3.41;90.91;98581.63;4875812;29;20242;-79
2021/01/12 19:05:27;;;;;;;33.85;22.38;;;;;;;3.18;91.02;98594.22;4873802;28;20199;-80
2021/01/12 19:07:54;;;;;;;26.67;18.80;;;;;;;3.22;90.74;98593.16;4852457;29;20200;-80
2021/01/12 19:10:21;;;;;;;23.48;17.80;;;;;;;2.98;91.29;98607.53;4851489;29;20227;-79
2021/01/12 19:12:47;;;;;;;25.75;18.40;;;;;;;2.89;91.92;98607.94;4862821;29;20230;-78
2021/01/12 19:15:15;;;;;;;25.45;21.38;;;;;;;2.84;92.42;98616.06;4868965;29;20299;-78
2021/01/12 19:17:45;;;;;;;25.77;19.02;;;;;;;2.75;92.39;98621.78;4865992;29;20237;-77
2021/01/12 19:20:13;;;;;;;24.80;18.00;;;;;;;2.64;92.99;98623.19;4872297;29;20203;-85
2021/01/12 19:22:42;;;;;;;29.73;19.80;;;;;;;2.88;93.41;98628.31;4871903;29;20286;-85
2021/01/12 19:25:10;;;;;;;32.88;23.27;;;;;;;3.06;91.64;98638.13;4849473;29;20274;-85
2021/01/12 19:27:41;;;;;;;41.10;28.20;;;;;;;2.98;91.19;98634.97;4857429;29;20226;-83
2021/01/12 19:30:11;;;;;;;42.10;29.10;;;;;;;2.82;91.60;98636.53;4873807;29;20239;-83
2021/01/12 19:33:10;;;;;;;37.25;26.70;;;;;;;2.82;91.53;98644.50;4857823;29;20227;-82
2021/01/12 19:35:39;;;;;;;48.08;32.55;;;;;;;2.58;92.23;98650.81;4890478;29;20207;-83
2021/01/12 19:38:10;;;;;;;40.90;29.30;;;;;;;2.93;92.26;98649.34;4871836;29;20206;-82
2021/01/12 19:40:36;;;;;;;28.90;21.40;;;;;;;2.99;90.49;98668.53;4879341;29;20233;-82
2021/01/12 19:43:05;;;;;;;15.50;12.45;;;;;;;2.97;88.55;98665.06;4864260;29;20226;-83
2021/01/12 19:45:33;;;;;;;9.95;7.15;;;;;;;3.04;86.50;98682.50;4889960;29;20241;-82
2021/01/12 19:48:04;;;;;;;13.77;9.25;;;;;;;2.98;86.37;98681.88;4865775;29;20230;-84
2021/01/12 19:50:32;;;;;;;8.95;7.07;;;;;;;2.81;86.47;98677.28;4856780;29;20191;-84
2021/01/12 19:53:01;;;;;;;9.75;7.82;;;;;;;2.50;87.45;98690.09;4875281;29;20222;-84
2021/01/12 19:55:28;;;;;;;11.07;6.85;;;;;;;2.54;87.35;98694.34;4864589;29;20222;-80
2021/01/12 19:57:55;;;;;;;7.65;5.38;;;;;;;2.81;85.48;98701.16;4878662;29;20218;-81
2021/01/12 20:00:22;;;;;;;8.30;6.15;;;;;;;2.99;84.10;98697.75;4876029;29;20222;-80
2021/01/12 20:02:49;;;;;;;5.38;4.43;;;;;;;2.96;83.65;98710.28;4860222;29;20234;-81
2021/01/12 20:05:19;;;;;;;7.03;5.40;;;;;;;3.03;83.21;98701.97;4858333;29;20214;-80
2021/01/12 20:08:04;;;;;;;7.28;6.47;;;;;;;3.03;83.51;98706.44;4876889;29;20230;-81
2021/01/12 20:10:31;;;;;;;7.63;6.55;;;;;;;3.03;82.94;98714.41;4884596;29;20286;-80
2021/01/12 20:13:05;;;;;;;8.57;6.10;;;;;;;2.96;83.02;98712.94;4878342;29;20927;-80
2021/01/12 20:15:38;;;;;;;7.70;6.10;;;;;;;2.95;82.99;98704.09;4876812;29;20251;-82
2021/01/12 20:18:08;;;;;;;9.82;6.90;;;;;;;2.88;83.21;98707.94;4862821;29;20226;-81
2021/01/12 20:20:43;;;;;;;7.57;6.28;;;;;;;2.86;82.92;98711.59;4858078;29;20293;-81
2021/01/12 20:23:11;;;;;;;10.45;6.65;;;;;;;2.85;82.90;98708.09;4849231;29;20227;-82
2021/01/12 20:25:46;;;;;;;10.20;7.28;;;;;;;2.80;83.67;98720.69;4845306;29;20714;-81
2021/01/12 20:28:18;;;;;;;10.20;6.95;;;;;;;2.61;84.20;98722.38;4853446;29;20282;-82
2021/01/12 20:30:47;;;;;;;8.77;7.55;;;;;;;2.49;84.53;98725.50;4839620;29;20231;-82
2021/01/12 20:33:14;;;;;;;10.93;8.52;;;;;;;2.61;84.50;98719.72;4875128;29;20238;-81
2021/01/12 20:35:48;;;;;;;11.15;8.90;;;;;;;2.49;85.16;98724.63;4844582;29;20253;-81